Time;durP1;ratioP1;P1;durP2;ratioP2;P2;SDS_P1;SDS_P2;PMS_P1;PMS_P2;Temp;Humidity;BMP_temperature;BMP_pressure;BME280_temperature;BME280_humidity;BME280_pressure;Samples;Min_cycle;Max_cycle;Signal;HPM_P1;HPM_P2
2023/08/08 00:00:59;;;;;;;9.98;2.33;;;;;;;;;;4987763;28;20049;-77
2023/08/08 00:03:27;;;;;;;8.23;2.20;;;;;;;;;;4984544;28;20053;-77
2023/08/08 00:05:53;;;;;;;6.70;2.05;;;;;;;;;;4987488;28;20050;-78
2023/08/08 00:08:20;;;;;;;6.22;1.85;;;;;;;;;;4985796;28;20045;-77
2023/08/08 00:10:47;;;;;;;6.63;1.90;;;;;;;;;;4986253;28;20070;-77
2023/08/08 00:13:14;;;;;;;8.43;2.15;;;;;;;;;;4984140;28;20054;-77
2023/08/08 00:15:40;;;;;;;6.05;2.00;;;;;;;;;;4986227;28;20092;-77
2023/08/08 00:18:08;;;;;;;6.78;1.63;;;;;;;;;;4985810;28;20042;-79
2023/08/08 00:20:35;;;;;;;8.75;2.28;;;;;;;;;;4987470;28;20042;-77
2023/08/08 00:23:02;;;;;;;5.28;2.20;;;;;;;;;;4985072;28;20066;-78
2023/08/08 00:25:29;;;;;;;2.95;1.70;;;;;;;;;;4984736;28;20042;-76
2023/08/08 00:27:56;;;;;;;8.52;2.00;;;;;;;;;;4969401;28;20050;-77
2023/08/08 00:30:22;;;;;;;10.07;2.28;;;;;;;;;;4952055;28;20462;-77
2023/08/08 00:32:49;;;;;;;4.60;1.92;;;;;;;;;;4984992;28;20474;-76
2023/08/08 00:35:16;;;;;;;6.03;1.83;;;;;;;;;;4973766;28;20129;-76
2023/08/08 00:37:44;;;;;;;5.95;1.60;;;;;;;;;;4991461;28;20035;-79
2023/08/08 00:40:10;;;;;;;5.65;2.20;;;;;;;;;;4989683;28;20053;-79
2023/08/08 00:42:37;;;;;;;5.03;1.83;;;;;;;;;;4988813;28;20042;-78
2023/08/08 00:45:10;;;;;;;9.40;1.95;;;;;;;;;;5005051;28;20046;-79
2023/08/08 00:47:37;;;;;;;7.47;2.40;;;;;;;;;;4987084;28;20046;-77
2023/08/08 00:50:04;;;;;;;6.72;2.22;;;;;;;;;;4991652;28;20118;-78
2023/08/08 00:52:30;;;;;;;7.68;2.15;;;;;;;;;;4974153;28;20038;-78
2023/08/08 00:54:57;;;;;;;7.30;2.13;;;;;;;;;;4991933;28;20046;-79
2023/08/08 00:57:24;;;;;;;5.07;2.05;;;;;;;;;;4991310;28;20677;-77
2023/08/08 00:59:51;;;;;;;7.32;2.00;;;;;;;;;;4993978;28;20762;-78
2023/08/08 01:02:17;;;;;;;12.07;2.05;;;;;;;;;;4990861;28;20391;-77
2023/08/08 01:04:44;;;;;;;5.07;2.00;;;;;;;;;;5011943;28;20064;-77
2023/08/08 01:07:23;;;;;;;5.10;1.95;;;;;;;;;;4989654;28;20140;-78
2023/08/08 01:09:50;;;;;;;5.90;1.92;;;;;;;;;;4990956;28;20081;-77
2023/08/08 01:12:17;;;;;;;7.20;2.10;;;;;;;;;;4988455;28;20042;-77
2023/08/08 01:14:45;;;;;;;5.05;1.80;;;;;;;;;;4990074;28;20108;-78
2023/08/08 01:17:12;;;;;;;7.47;2.13;;;;;;;;;;4991254;28;20038;-78
2023/08/08 01:19:42;;;;;;;6.53;1.90;;;;;;;;;;4975454;28;20050;-78
2023/08/08 01:22:14;;;;;;;4.53;1.80;;;;;;;;;;4992567;28;20046;-77
2023/08/08 01:24:43;;;;;;;3.85;1.70;;;;;;;;;;4993868;28;20049;-77
2023/08/08 01:27:11;;;;;;;7.97;2.00;;;;;;;;;;4997727;28;20491;-78
2023/08/08 01:29:39;;;;;;;4.22;1.98;;;;;;;;;;5003899;28;20068;-77
2023/08/08 01:32:05;;;;;;;5.70;1.98;;;;;;;;;;4999401;28;20050;-79
2023/08/08 01:34:33;;;;;;;6.55;2.10;;;;;;;;;;5008677;28;20060;-78
2023/08/08 01:37:15;;;;;;;6.43;1.90;;;;;;;;;;4994839;28;20049;-80
2023/08/08 01:39:42;;;;;;;5.47;1.83;;;;;;;;;;4993990;28;20046;-77
2023/08/08 01:42:09;;;;;;;8.75;2.00;;;;;;;;;;4991486;28;20047;-78
2023/08/08 01:44:40;;;;;;;5.63;1.98;;;;;;;;;;4974500;28;20073;-77
2023/08/08 01:47:07;;;;;;;6.30;1.92;;;;;;;;;;4992850;28;20354;-78
2023/08/08 01:49:34;;;;;;;3.15;1.70;;;;;;;;;;4996925;28;20101;-80
2023/08/08 01:52:01;;;;;;;3.58;1.73;;;;;;;;;;4992082;28;20042;-78
2023/08/08 01:54:27;;;;;;;3.33;1.45;;;;;;;;;;4983265;28;20078;-78
2023/08/08 01:56:54;;;;;;;3.28;1.73;;;;;;;;;;4984881;28;20046;-79
2023/08/08 01:59:21;;;;;;;6.70;1.70;;;;;;;;;;4988747;28;20087;-78
2023/08/08 02:01:48;;;;;;;4.45;1.45;;;;;;;;;;4992168;28;20042;-77
2023/08/08 02:04:15;;;;;;;4.05;1.52;;;;;;;;;;4992847;28;20419;-78
2023/08/08 02:06:42;;;;;;;3.42;1.75;;;;;;;;;;4992091;28;20482;-78
2023/08/08 02:09:09;;;;;;;6.25;2.17;;;;;;;;;;4994418;28;20104;-78
2023/08/08 02:11:35;;;;;;;4.55;1.70;;;;;;;;;;4994137;28;20054;-78
2023/08/08 02:14:02;;;;;;;6.35;1.95;;;;;;;;;;4992923;28;20423;-79
2023/08/08 02:16:29;;;;;;;5.15;1.85;;;;;;;;;;4993344;28;20104;-79
2023/08/08 02:18:56;;;;;;;5.20;1.70;;;;;;;;;;4995244;28;20050;-79
2023/08/08 02:21:22;;;;;;;4.65;1.67;;;;;;;;;;4995093;28;20046;-79
2023/08/08 02:23:49;;;;;;;5.07;1.77;;;;;;;;;;4995196;28;20042;-79
2023/08/08 02:26:16;;;;;;;4.15;1.77;;;;;;;;;;4990993;28;20534;-78
2023/08/08 02:28:43;;;;;;;5.10;2.08;;;;;;;;;;4997276;28;20073;-78
2023/08/08 02:31:10;;;;;;;4.35;1.65;;;;;;;;;;4991739;28;20038;-77
2023/08/08 02:33:36;;;;;;;4.40;1.75;;;;;;;;;;4990486;28;20074;-78
2023/08/08 02:36:03;;;;;;;5.43;1.60;;;;;;;;;;4990255;28;20038;-79
2023/08/08 02:38:30;;;;;;;9.13;2.30;;;;;;;;;;4988651;28;20054;-77
2023/08/08 02:40:57;;;;;;;4.47;1.90;;;;;;;;;;4987182;28;20536;-77
2023/08/08 02:43:23;;;;;;;7.60;2.08;;;;;;;;;;4987215;28;20038;-78
2023/08/08 02:45:50;;;;;;;3.60;1.70;;;;;;;;;;4986371;28;20049;-78
2023/08/08 02:48:17;;;;;;;3.17;1.60;;;;;;;;;;5006265;28;20073;-77
2023/08/08 02:50:44;;;;;;;7.88;2.17;;;;;;;;;;4990050;28;20054;-78
2023/08/08 02:53:11;;;;;;;4.15;2.08;;;;;;;;;;4989981;28;20077;-77
2023/08/08 02:55:43;;;;;;;4.55;2.47;;;;;;;;;;4982991;28;21196;-80
2023/08/08 02:58:09;;;;;;;6.40;2.10;;;;;;;;;;4989848;28;20046;-78
2023/08/08 03:00:36;;;;;;;6.00;1.85;;;;;;;;;;4988848;28;20057;-80
2023/08/08 03:03:06;;;;;;;4.55;1.80;;;;;;;;;;4993257;28;20434;-78
2023/08/08 03:05:33;;;;;;;2.95;1.85;;;;;;;;;;4991489;28;20051;-78
2023/08/08 03:08:00;;;;;;;4.38;1.85;;;;;;;;;;4993702;28;20097;-78
2023/08/08 03:10:27;;;;;;;5.57;1.92;;;;;;;;;;4989475;28;20065;-79
2023/08/08 03:12:53;;;;;;;5.18;2.10;;;;;;;;;;4991264;28;20093;-78
2023/08/08 03:15:21;;;;;;;4.70;1.98;;;;;;;;;;4991517;28;20046;-78
2023/08/08 03:17:48;;;;;;;6.13;1.90;;;;;;;;;;4993417;28;20038;-79
2023/08/08 03:20:16;;;;;;;4.18;2.00;;;;;;;;;;4992617;28;20074;-78
2023/08/08 03:22:43;;;;;;;6.25;2.00;;;;;;;;;;4993552;28;20057;-78
2023/08/08 03:25:10;;;;;;;4.25;1.85;;;;;;;;;;4989770;28;20050;-77
2023/08/08 03:27:37;;;;;;;3.67;2.05;;;;;;;;;;4988344;28;20054;-78
2023/08/08 03:30:05;;;;;;;3.72;1.88;;;;;;;;;;4988575;28;20120;-79
2023/08/08 03:32:37;;;;;;;6.82;1.83;;;;;;;;;;4989734;28;20057;-77
2023/08/08 03:35:04;;;;;;;4.10;1.90;;;;;;;;;;4987484;28;20038;-78
2023/08/08 03:37:31;;;;;;;7.13;1.75;;;;;;;;;;4985606;28;20050;-75
2023/08/08 03:39:58;;;;;;;5.03;2.03;;;;;;;;;;4989543;28;20077;-79
2023/08/08 03:42:25;;;;;;;5.35;2.17;;;;;;;;;;4988795;28;20054;-79
2023/08/08 03:44:51;;;;;;;6.05;1.95;;;;;;;;;;4993075;28;20648;-79
2023/08/08 03:47:18;;;;;;;7.00;1.98;;;;;;;;;;4992767;28;20042;-79
2023/08/08 03:49:46;;;;;;;5.85;2.03;;;;;;;;;;4994587;28;20053;-78
2023/08/08 03:52:13;;;;;;;5.45;2.10;;;;;;;;;;4991646;28;20074;-77
2023/08/08 03:54:40;;;;;;;4.90;1.98;;;;;;;;;;4971482;28;20042;-77
2023/08/08 03:57:07;;;;;;;6.55;2.45;;;;;;;;;;4987473;28;20042;-76
2023/08/08 03:59:34;;;;;;;5.38;2.28;;;;;;;;;;4988017;28;20104;-78
2023/08/08 04:02:00;;;;;;;5.72;2.10;;;;;;;;;;4989164;28;20050;-79
2023/08/08 04:04:28;;;;;;;7.57;2.28;;;;;;;;;;4988400;28;20137;-80
2023/08/08 04:06:54;;;;;;;3.75;1.65;;;;;;;;;;4992874;28;20054;-77
2023/08/08 04:09:21;;;;;;;4.75;2.08;;;;;;;;;;5000446;28;20061;-78
2023/08/08 04:11:48;;;;;;;6.50;1.88;;;;;;;;;;5001446;28;20050;-77
2023/08/08 04:14:16;;;;;;;7.65;2.10;;;;;;;;;;5001673;28;20519;-75
2023/08/08 04:16:42;;;;;;;5.60;2.13;;;;;;;;;;4996898;28;20042;-77
2023/08/08 04:19:09;;;;;;;3.65;1.98;;;;;;;;;;4995440;28;20046;-79
2023/08/08 04:21:37;;;;;;;5.40;1.92;;;;;;;;;;4989813;28;20073;-78
2023/08/08 04:24:03;;;;;;;4.55;2.60;;;;;;;;;;4988233;28;20043;-78
2023/08/08 04:26:30;;;;;;;8.82;2.28;;;;;;;;;;4987445;28;20050;-78
2023/08/08 04:28:57;;;;;;;5.53;2.20;;;;;;;;;;4989653;28;20077;-78
2023/08/08 04:31:26;;;;;;;5.93;2.30;;;;;;;;;;4986973;28;20061;-78
2023/08/08 04:33:58;;;;;;;4.10;1.90;;;;;;;;;;4987516;28;20057;-78
2023/08/08 04:36:27;;;;;;;7.53;2.22;;;;;;;;;;4986897;28;21683;-78
2023/08/08 04:38:54;;;;;;;5.13;2.10;;;;;;;;;;4994115;28;20046;-79
2023/08/08 04:41:20;;;;;;;5.13;2.20;;;;;;;;;;4988244;28;20047;-80
2023/08/08 04:43:47;;;;;;;5.55;2.20;;;;;;;;;;4990917;28;20069;-77
2023/08/08 04:46:14;;;;;;;6.40;2.10;;;;;;;;;;5001786;28;20034;-77
2023/08/08 04:48:41;;;;;;;4.78;2.13;;;;;;;;;;4988281;28;20104;-77
2023/08/08 04:51:08;;;;;;;5.50;2.17;;;;;;;;;;4987525;28;20042;-77
2023/08/08 04:53:34;;;;;;;6.40;2.35;;;;;;;;;;4986326;28;20066;-77
2023/08/08 04:56:01;;;;;;;5.78;2.03;;;;;;;;;;4988522;28;20070;-77
2023/08/08 04:58:28;;;;;;;6.97;2.50;;;;;;;;;;4999102;28;20046;-78
2023/08/08 05:00:55;;;;;;;6.72;2.10;;;;;;;;;;4985374;28;20495;-76
2023/08/08 05:03:21;;;;;;;4.80;1.92;;;;;;;;;;4989258;28;20081;-78
2023/08/08 05:05:48;;;;;;;3.72;1.80;;;;;;;;;;4990249;28;20072;-77
2023/08/08 05:08:15;;;;;;;5.82;2.10;;;;;;;;;;4984908;28;20165;-76
2023/08/08 05:10:42;;;;;;;2.88;1.73;;;;;;;;;;4983139;28;20050;-76
2023/08/08 05:13:09;;;;;;;4.68;1.83;;;;;;;;;;4986678;28;20054;-78
2023/08/08 05:15:36;;;;;;;4.32;1.63;;;;;;;;;;4985320;28;20062;-78
2023/08/08 05:18:02;;;;;;;9.73;1.90;;;;;;;;;;4991223;28;20046;-78
2023/08/08 05:20:29;;;;;;;2.97;1.63;;;;;;;;;;4974463;28;20051;-79
2023/08/08 05:22:56;;;;;;;4.38;2.10;;;;;;;;;;4996300;28;20062;-78
2023/08/08 05:25:23;;;;;;;6.63;2.00;;;;;;;;;;4990681;28;20288;-78
2023/08/08 05:27:50;;;;;;;4.97;2.08;;;;;;;;;;4992671;28;20042;-79
2023/08/08 05:30:17;;;;;;;4.32;1.73;;;;;;;;;;4991049;28;20070;-78
2023/08/08 05:32:43;;;;;;;4.38;1.70;;;;;;;;;;4993980;28;20073;-79
2023/08/08 05:35:10;;;;;;;3.63;1.67;;;;;;;;;;4994883;28;20053;-78
2023/08/08 05:37:37;;;;;;;6.38;1.90;;;;;;;;;;4994040;28;20042;-78
2023/08/08 05:40:06;;;;;;;3.75;1.48;;;;;;;;;;4995314;28;20054;-78
2023/08/08 05:42:32;;;;;;;3.13;1.65;;;;;;;;;;4990905;28;20322;-79
2023/08/08 05:44:59;;;;;;;5.95;1.77;;;;;;;;;;4992647;28;20411;-78
2023/08/08 05:47:26;;;;;;;6.93;1.70;;;;;;;;;;4994402;28;20050;-78
2023/08/08 05:49:53;;;;;;;3.15;1.48;;;;;;;;;;4995807;28;20046;-79
2023/08/08 05:52:21;;;;;;;4.00;1.90;;;;;;;;;;4991675;28;20057;-80
2023/08/08 05:54:47;;;;;;;5.40;1.85;;;;;;;;;;4996424;28;20073;-80
2023/08/08 05:57:14;;;;;;;5.13;1.70;;;;;;;;;;4992779;28;20053;-79
2023/08/08 05:59:41;;;;;;;4.18;1.48;;;;;;;;;;4994294;28;20077;-81
2023/08/08 06:02:07;;;;;;;6.72;1.55;;;;;;;;;;4994177;28;20038;-81
2023/08/08 06:04:35;;;;;;;7.45;1.80;;;;;;;;;;4992931;28;20730;-78
2023/08/08 06:07:03;;;;;;;2.85;1.60;;;;;;;;;;4993907;28;20457;-76
2023/08/08 06:09:32;;;;;;;4.10;1.80;;;;;;;;;;4993035;28;20137;-81
2023/08/08 06:11:59;;;;;;;6.28;1.70;;;;;;;;;;4994761;28;20035;-80
2023/08/08 06:14:26;;;;;;;5.32;1.70;;;;;;;;;;4992982;28;20042;-79
2023/08/08 06:16:53;;;;;;;5.82;1.80;;;;;;;;;;4976448;28;20077;-80
2023/08/08 06:19:20;;;;;;;6.35;2.00;;;;;;;;;;4996199;28;20419;-81
2023/08/08 06:21:46;;;;;;;5.90;2.00;;;;;;;;;;4995698;28;20111;-78
2023/08/08 06:24:13;;;;;;;3.88;1.90;;;;;;;;;;4995035;28;20049;-79
2023/08/08 06:26:40;;;;;;;3.08;1.67;;;;;;;;;;4991949;28;20034;-80
2023/08/08 06:29:07;;;;;;;7.65;2.00;;;;;;;;;;4994183;28;20078;-80
2023/08/08 06:31:33;;;;;;;7.28;2.10;;;;;;;;;;4996755;28;20403;-77
2023/08/08 06:34:01;;;;;;;5.50;2.03;;;;;;;;;;4991493;28;20042;-80
2023/08/08 06:36:28;;;;;;;4.47;1.70;;;;;;;;;;4989799;28;20138;-78
2023/08/08 06:38:54;;;;;;;4.05;2.00;;;;;;;;;;4993111;28;20050;-80
2023/08/08 06:41:21;;;;;;;5.13;2.45;;;;;;;;;;4997720;28;20109;-79
2023/08/08 06:43:48;;;;;;;5.22;2.42;;;;;;;;;;4992635;28;20146;-80
2023/08/08 06:46:15;;;;;;;5.38;2.60;;;;;;;;;;4993926;28;20061;-79
2023/08/08 06:48:42;;;;;;;4.55;2.50;;;;;;;;;;4993720;28;20100;-79
2023/08/08 06:51:09;;;;;;;9.40;2.63;;;;;;;;;;4992411;28;20062;-79
2023/08/08 06:53:36;;;;;;;5.18;2.60;;;;;;;;;;4996297;28;20081;-79
2023/08/08 06:56:02;;;;;;;7.82;2.70;;;;;;;;;;4989912;28;20164;-79
2023/08/08 06:58:29;;;;;;;4.40;2.20;;;;;;;;;;4992171;28;20046;-77
2023/08/08 07:00:56;;;;;;;4.93;2.15;;;;;;;;;;4991175;28;20042;-78
2023/08/08 07:03:23;;;;;;;4.13;2.20;;;;;;;;;;4991720;28;20499;-79
2023/08/08 07:05:51;;;;;;;4.80;2.22;;;;;;;;;;4991915;28;20042;-80
2023/08/08 07:08:19;;;;;;;4.97;2.25;;;;;;;;;;4992047;28;20146;-80
2023/08/08 07:10:45;;;;;;;7.20;2.50;;;;;;;;;;4991754;28;20049;-81
2023/08/08 07:13:12;;;;;;;4.53;2.20;;;;;;;;;;4989723;28;20054;-78
2023/08/08 07:15:39;;;;;;;7.75;2.10;;;;;;;;;;4973978;28;20051;-78
2023/08/08 07:18:06;;;;;;;5.43;2.00;;;;;;;;;;4990341;28;20054;-80
2023/08/08 07:20:33;;;;;;;5.78;2.35;;;;;;;;;;4992390;28;20050;-79
2023/08/08 07:23:01;;;;;;;6.53;2.15;;;;;;;;;;5011728;28;20058;-77
2023/08/08 07:25:28;;;;;;;4.80;2.03;;;;;;;;;;4988386;28;20050;-78
2023/08/08 07:27:55;;;;;;;3.05;1.83;;;;;;;;;;4993229;28;20046;-79
2023/08/08 07:30:21;;;;;;;5.30;2.00;;;;;;;;;;4976697;28;20058;-79
2023/08/08 07:32:48;;;;;;;3.25;1.88;;;;;;;;;;4994099;28;20042;-78
2023/08/08 07:35:15;;;;;;;4.63;2.00;;;;;;;;;;4994485;28;20065;-82
2023/08/08 07:37:43;;;;;;;4.07;2.08;;;;;;;;;;4983787;28;20070;-79
2023/08/08 07:40:17;;;;;;;4.13;1.60;;;;;;;;;;5002897;28;20046;-79
2023/08/08 07:42:45;;;;;;;3.53;1.83;;;;;;;;;;4996596;28;20050;-79
2023/08/08 07:45:12;;;;;;;3.80;1.80;;;;;;;;;;4993556;28;20617;-79
2023/08/08 07:47:38;;;;;;;4.50;1.98;;;;;;;;;;4993875;28;20133;-80
2023/08/08 07:50:08;;;;;;;4.30;2.08;;;;;;;;;;5000386;28;20045;-80
2023/08/08 07:52:35;;;;;;;3.42;1.83;;;;;;;;;;4994026;28;20070;-80
2023/08/08 07:55:03;;;;;;;7.28;1.80;;;;;;;;;;4993470;28;20042;-80
2023/08/08 07:57:35;;;;;;;4.35;2.10;;;;;;;;;;4992333;28;20064;-80
2023/08/08 08:00:08;;;;;;;4.43;1.80;;;;;;;;;;4994401;28;20046;-78
2023/08/08 08:02:37;;;;;;;10.57;2.30;;;;;;;;;;4996000;28;20034;-81
2023/08/08 08:05:07;;;;;;;5.43;1.98;;;;;;;;;;4993986;28;20053;-80
2023/08/08 08:07:35;;;;;;;3.92;1.92;;;;;;;;;;4995019;28;20080;-79
2023/08/08 08:10:02;;;;;;;2.90;1.83;;;;;;;;;;4978032;28;20034;-79
2023/08/08 08:12:29;;;;;;;6.70;1.88;;;;;;;;;;4993836;28;20046;-80
2023/08/08 08:14:56;;;;;;;2.53;1.65;;;;;;;;;;4975263;28;20070;-79
2023/08/08 08:17:23;;;;;;;4.60;2.22;;;;;;;;;;4992961;28;20081;-80
2023/08/08 08:19:51;;;;;;;6.95;1.80;;;;;;;;;;4996243;28;20054;-80
2023/08/08 08:22:18;;;;;;;3.40;1.70;;;;;;;;;;4989876;28;20046;-78
2023/08/08 08:24:45;;;;;;;5.80;2.03;;;;;;;;;;4987149;28;20066;-80
2023/08/08 08:27:12;;;;;;;2.95;1.52;;;;;;;;;;4984082;28;20098;-79
2023/08/08 08:29:39;;;;;;;4.03;1.50;;;;;;;;;;4982313;28;20046;-79
2023/08/08 08:32:06;;;;;;;7.00;1.50;;;;;;;;;;4959724;28;20089;-79
2023/08/08 08:34:33;;;;;;;5.88;1.92;;;;;;;;;;4986570;28;20133;-77
2023/08/08 08:37:00;;;;;;;3.55;1.77;;;;;;;;;;4989674;28;20043;-79
2023/08/08 08:39:26;;;;;;;3.55;1.83;;;;;;;;;;4988054;28;20043;-79
2023/08/08 08:41:56;;;;;;;3.33;1.50;;;;;;;;;;4990137;28;20070;-80
2023/08/08 08:44:23;;;;;;;6.72;1.80;;;;;;;;;;4988017;28;20046;-79
2023/08/08 08:46:51;;;;;;;4.68;1.80;;;;;;;;;;4992371;28;20050;-80
2023/08/08 08:49:21;;;;;;;3.28;1.60;;;;;;;;;;4990847;28;20096;-78
2023/08/08 08:51:47;;;;;;;3.60;1.50;;;;;;;;;;4991967;28;20042;-80
2023/08/08 08:54:14;;;;;;;6.93;1.45;;;;;;;;;;4988204;28;20046;-79
2023/08/08 08:56:42;;;;;;;4.47;1.85;;;;;;;;;;4991391;28;20046;-78
2023/08/08 08:59:09;;;;;;;7.78;1.90;;;;;;;;;;4996424;28;20062;-79
2023/08/08 09:01:36;;;;;;;5.20;1.73;;;;;;;;;;4961595;28;20293;-79
2023/08/08 09:04:03;;;;;;;3.38;1.40;;;;;;;;;;4995437;28;20057;-80
2023/08/08 09:06:31;;;;;;;5.43;1.60;;;;;;;;;;4997973;28;20068;-78
2023/08/08 09:08:57;;;;;;;4.28;1.40;;;;;;;;;;4991957;28;20102;-78
2023/08/08 09:11:48;;;;;;;3.50;1.45;;;;;;;;;;4989992;28;20463;-80
2023/08/08 09:14:18;;;;;;;3.47;1.48;;;;;;;;;;4974212;28;20407;-78
2023/08/08 09:16:46;;;;;;;3.22;1.30;;;;;;;;;;4985201;28;20038;-78
2023/08/08 09:19:13;;;;;;;5.32;1.70;;;;;;;;;;4993401;28;20046;-79
2023/08/08 09:21:40;;;;;;;1.77;1.13;;;;;;;;;;4990602;28;20054;-79
2023/08/08 09:24:09;;;;;;;6.47;1.45;;;;;;;;;;4996658;28;20061;-78
2023/08/08 09:26:36;;;;;;;2.90;1.50;;;;;;;;;;4991615;28;20479;-79
2023/08/08 09:29:03;;;;;;;3.10;1.10;;;;;;;;;;4994064;28;20043;-79
2023/08/08 09:31:30;;;;;;;3.65;1.30;;;;;;;;;;4992486;28;20050;-79
2023/08/08 09:34:00;;;;;;;1.52;1.10;;;;;;;;;;4997175;28;20053;-79
2023/08/08 09:36:27;;;;;;;4.97;1.20;;;;;;;;;;4990059;28;20061;-81
2023/08/08 09:38:56;;;;;;;2.92;1.33;;;;;;;;;;4977413;28;20042;-79
2023/08/08 09:41:23;;;;;;;3.28;1.58;;;;;;;;;;4992432;28;20077;-80
2023/08/08 09:43:51;;;;;;;4.15;1.83;;;;;;;;;;5014033;28;20054;-80
2023/08/08 09:46:18;;;;;;;2.95;1.60;;;;;;;;;;4990961;28;20160;-80
2023/08/08 09:48:46;;;;;;;5.43;1.75;;;;;;;;;;4994370;28;20125;-80
2023/08/08 09:51:13;;;;;;;3.08;1.50;;;;;;;;;;4991898;28;20057;-78
2023/08/08 09:53:40;;;;;;;9.07;1.80;;;;;;;;;;4992592;28;20145;-80
2023/08/08 09:56:07;;;;;;;5.95;1.50;;;;;;;;;;4988680;28;20050;-78
2023/08/08 09:58:34;;;;;;;4.47;1.25;;;;;;;;;;4992813;28;20069;-81
2023/08/08 10:01:01;;;;;;;4.75;1.60;;;;;;;;;;4992197;28;20264;-80
2023/08/08 10:03:28;;;;;;;5.60;1.63;;;;;;;;;;4971829;28;20132;-80
2023/08/08 10:05:55;;;;;;;3.40;1.40;;;;;;;;;;4990658;28;20673;-81
2023/08/08 10:08:22;;;;;;;3.97;1.30;;;;;;;;;;4989909;28;20484;-79
2023/08/08 10:10:50;;;;;;;2.03;1.00;;;;;;;;;;4987965;28;20685;-79
2023/08/08 10:13:20;;;;;;;2.60;1.23;;;;;;;;;;4987917;28;20100;-77
2023/08/08 10:15:47;;;;;;;5.80;1.20;;;;;;;;;;4988543;28;20078;-79
2023/08/08 10:18:14;;;;;;;6.32;1.17;;;;;;;;;;4993789;28;20070;-81
2023/08/08 10:20:47;;;;;;;2.75;1.27;;;;;;;;;;4995907;28;20046;-81
2023/08/08 10:23:17;;;;;;;5.03;1.35;;;;;;;;;;5012098;28;20043;-80
2023/08/08 10:25:45;;;;;;;1.95;1.17;;;;;;;;;;5007626;28;20042;-80
2023/08/08 10:28:13;;;;;;;6.03;1.23;;;;;;;;;;4995786;28;20066;-79
2023/08/08 10:30:52;;;;;;;4.35;1.20;;;;;;;;;;4982222;28;20042;-79
2023/08/08 10:33:26;;;;;;;3.90;1.13;;;;;;;;;;4999670;28;20038;-79
2023/08/08 10:35:56;;;;;;;4.03;1.05;;;;;;;;;;5000482;28;20049;-80
2023/08/08 10:38:23;;;;;;;3.90;1.30;;;;;;;;;;4999849;28;20061;-78
2023/08/08 10:41:02;;;;;;;4.97;1.23;;;;;;;;;;4993372;28;20199;-79
2023/08/08 10:43:29;;;;;;;2.17;1.17;;;;;;;;;;4988454;28;20056;-79
2023/08/08 10:46:02;;;;;;;5.55;1.10;;;;;;;;;;4988687;28;20046;-80
2023/08/08 10:48:51;;;;;;;3.35;1.20;;;;;;;;;;4992627;28;20046;-79
2023/08/08 10:51:19;;;;;;;4.28;1.10;;;;;;;;;;5008666;28;20038;-82
2023/08/08 10:53:46;;;;;;;2.67;1.00;;;;;;;;;;5006586;28;20050;-79
2023/08/08 10:56:13;;;;;;;4.45;1.08;;;;;;;;;;5005625;28;20053;-79
2023/08/08 10:58:41;;;;;;;3.53;1.42;;;;;;;;;;4994668;28;20505;-80
2023/08/08 11:01:08;;;;;;;5.63;1.35;;;;;;;;;;4991391;28;20121;-79
2023/08/08 11:03:39;;;;;;;2.25;0.95;;;;;;;;;;4990189;28;20437;-79
2023/08/08 11:06:09;;;;;;;2.53;1.10;;;;;;;;;;4991487;28;20046;-78
2023/08/08 11:08:38;;;;;;;1.83;0.95;;;;;;;;;;4992014;28;20058;-79
2023/08/08 11:11:06;;;;;;;4.97;1.00;;;;;;;;;;4989165;28;20042;-79
2023/08/08 11:13:33;;;;;;;3.88;1.08;;;;;;;;;;4992374;28;20045;-79
2023/08/08 11:16:01;;;;;;;4.10;1.10;;;;;;;;;;4973003;28;20038;-79
2023/08/08 11:18:28;;;;;;;2.15;1.00;;;;;;;;;;4989785;28;20049;-79
2023/08/08 11:20:55;;;;;;;2.00;1.10;;;;;;;;;;4992109;28;20038;-80
2023/08/08 11:23:38;;;;;;;1.73;1.02;;;;;;;;;;4990193;28;20225;-79
2023/08/08 11:26:04;;;;;;;1.70;1.00;;;;;;;;;;4988484;28;20043;-80
2023/08/08 11:28:35;;;;;;;1.38;0.90;;;;;;;;;;4991801;28;20046;-78
2023/08/08 11:31:02;;;;;;;1.83;1.10;;;;;;;;;;4991083;28;20106;-78
2023/08/08 11:33:29;;;;;;;3.08;1.00;;;;;;;;;;4992088;28;20056;-78
2023/08/08 11:35:56;;;;;;;1.58;0.85;;;;;;;;;;4992479;28;20073;-79
2023/08/08 11:38:23;;;;;;;5.03;1.20;;;;;;;;;;4999200;28;20053;-80
2023/08/08 11:40:52;;;;;;;3.95;0.95;;;;;;;;;;4992123;28;20077;-80
2023/08/08 11:43:19;;;;;;;2.03;1.00;;;;;;;;;;4974781;28;20049;-79
2023/08/08 11:45:49;;;;;;;1.90;1.15;;;;;;;;;;4993088;28;20407;-80
2023/08/08 11:48:16;;;;;;;3.55;1.10;;;;;;;;;;4993547;28;20063;-80
2023/08/08 11:50:44;;;;;;;6.43;1.20;;;;;;;;;;4992845;28;20110;-79
2023/08/08 11:53:11;;;;;;;2.53;1.10;;;;;;;;;;4976476;28;20102;-79
2023/08/08 11:55:38;;;;;;;1.83;1.00;;;;;;;;;;4985567;28;20362;-80
2023/08/08 11:58:05;;;;;;;3.83;1.08;;;;;;;;;;4993011;28;20042;-79
2023/08/08 12:00:33;;;;;;;2.67;1.20;;;;;;;;;;4986296;28;20046;-79
2023/08/08 12:03:01;;;;;;;1.88;1.02;;;;;;;;;;4972149;28;20053;-79
2023/08/08 12:05:29;;;;;;;1.75;1.02;;;;;;;;;;4991405;28;20474;-81
2023/08/08 12:07:58;;;;;;;3.00;1.13;;;;;;;;;;4990810;28;20042;-80
2023/08/08 12:10:25;;;;;;;2.75;1.23;;;;;;;;;;4989578;28;20074;-79
2023/08/08 12:12:53;;;;;;;2.10;1.00;;;;;;;;;;4990049;28;20053;-81
2023/08/08 12:15:20;;;;;;;2.55;1.10;;;;;;;;;;4989670;28;20137;-80
2023/08/08 12:17:47;;;;;;;2.20;0.90;;;;;;;;;;4992487;28;20058;-80
2023/08/08 12:20:14;;;;;;;2.88;1.00;;;;;;;;;;4992641;28;20046;-79
2023/08/08 12:22:41;;;;;;;2.22;1.00;;;;;;;;;;4992161;28;20813;-79
2023/08/08 12:25:08;;;;;;;2.65;1.20;;;;;;;;;;4990450;28;20066;-78
2023/08/08 12:27:35;;;;;;;2.65;1.02;;;;;;;;;;4981331;28;20138;-79
2023/08/08 12:30:01;;;;;;;2.47;1.13;;;;;;;;;;4991185;28;20104;-79
2023/08/08 12:32:28;;;;;;;4.18;1.10;;;;;;;;;;4994755;28;20046;-78
2023/08/08 12:34:55;;;;;;;2.72;1.20;;;;;;;;;;4971179;28;20035;-78
2023/08/08 12:37:23;;;;;;;1.50;1.00;;;;;;;;;;4994197;28;20046;-78
2023/08/08 12:39:50;;;;;;;3.45;1.45;;;;;;;;;;4993424;28;20042;-78
2023/08/08 12:42:17;;;;;;;2.95;0.98;;;;;;;;;;5009225;28;20104;-78
2023/08/08 12:44:44;;;;;;;3.33;0.98;;;;;;;;;;4993862;28;20111;-79
2023/08/08 12:47:11;;;;;;;3.15;0.95;;;;;;;;;;5000518;28;20046;-77
2023/08/08 12:49:41;;;;;;;1.70;0.95;;;;;;;;;;4995121;28;20042;-78
2023/08/08 12:52:07;;;;;;;2.20;1.10;;;;;;;;;;5006155;28;20052;-77
2023/08/08 12:54:35;;;;;;;1.90;0.80;;;;;;;;;;5007771;28;20105;-77
2023/08/08 12:57:02;;;;;;;3.05;1.08;;;;;;;;;;4976436;28;20097;-77
2023/08/08 12:59:29;;;;;;;2.22;1.08;;;;;;;;;;4996707;28;20046;-78
2023/08/08 13:01:56;;;;;;;2.15;1.10;;;;;;;;;;5007412;28;20077;-77
2023/08/08 13:04:23;;;;;;;4.03;1.20;;;;;;;;;;4994462;28;20058;-78
2023/08/08 13:06:50;;;;;;;3.42;1.35;;;;;;;;;;4990227;28;20042;-77
2023/08/08 13:09:17;;;;;;;2.28;0.90;;;;;;;;;;4992001;28;20479;-77
2023/08/08 13:11:43;;;;;;;2.45;1.00;;;;;;;;;;4993113;28;20441;-78
2023/08/08 13:14:11;;;;;;;2.42;0.95;;;;;;;;;;4991017;28;20042;-77
2023/08/08 13:16:38;;;;;;;2.67;1.00;;;;;;;;;;4989787;28;20065;-77
2023/08/08 13:19:05;;;;;;;1.02;0.85;;;;;;;;;;4994165;28;20100;-78
2023/08/08 13:21:32;;;;;;;3.50;1.00;;;;;;;;;;4992392;28;20039;-76
2023/08/08 13:23:58;;;;;;;1.67;1.02;;;;;;;;;;4992797;28;20110;-77
2023/08/08 13:26:25;;;;;;;1.85;1.10;;;;;;;;;;4987144;28;20070;-77
2023/08/08 13:28:52;;;;;;;2.92;1.23;;;;;;;;;;4974905;28;20052;-78
2023/08/08 13:31:19;;;;;;;2.05;0.98;;;;;;;;;;4992235;28;20073;-78
2023/08/08 13:33:45;;;;;;;3.30;1.10;;;;;;;;;;4990342;28;20387;-78
2023/08/08 13:36:12;;;;;;;3.03;1.10;;;;;;;;;;4989783;28;20047;-77
2023/08/08 13:38:39;;;;;;;2.13;1.10;;;;;;;;;;4988104;28;20050;-78
2023/08/08 13:41:05;;;;;;;3.67;1.40;;;;;;;;;;4991611;28;20073;-79
2023/08/08 13:43:32;;;;;;;1.65;0.80;;;;;;;;;;4991273;28;20054;-78
2023/08/08 13:46:03;;;;;;;3.35;1.02;;;;;;;;;;4992019;28;20058;-77
2023/08/08 13:48:30;;;;;;;2.83;0.90;;;;;;;;;;4992869;28;20430;-78
2023/08/08 13:50:57;;;;;;;2.33;1.20;;;;;;;;;;4984441;28;20065;-78
2023/08/08 13:53:24;;;;;;;2.42;1.20;;;;;;;;;;5004254;28;20049;-79
2023/08/08 13:55:51;;;;;;;1.75;0.90;;;;;;;;;;5009482;28;20053;-79
2023/08/08 13:58:18;;;;;;;1.48;0.88;;;;;;;;;;4991752;28;20121;-80
2023/08/08 14:00:45;;;;;;;1.67;0.93;;;;;;;;;;4990732;28;20060;-79
2023/08/08 14:03:12;;;;;;;3.58;1.30;;;;;;;;;;4990108;28;20039;-78
2023/08/08 14:05:40;;;;;;;3.20;1.10;;;;;;;;;;4991941;28;20054;-79
2023/08/08 14:08:08;;;;;;;2.88;1.00;;;;;;;;;;4990733;28;20042;-79
2023/08/08 14:10:35;;;;;;;3.45;1.10;;;;;;;;;;4990659;28;20073;-79
2023/08/08 14:13:02;;;;;;;3.20;1.10;;;;;;;;;;4990954;28;20038;-78
2023/08/08 14:15:29;;;;;;;2.38;1.00;;;;;;;;;;4972697;28;20054;-80
2023/08/08 14:18:05;;;;;;;5.43;1.15;;;;;;;;;;4959295;28;20049;-79
2023/08/08 14:20:32;;;;;;;3.00;1.13;;;;;;;;;;4994542;28;20061;-79
2023/08/08 14:22:59;;;;;;;2.65;0.95;;;;;;;;;;4993384;28;20046;-79
2023/08/08 14:25:26;;;;;;;2.35;0.98;;;;;;;;;;4991215;28;20053;-79
2023/08/08 14:27:53;;;;;;;2.63;1.10;;;;;;;;;;4992055;28;20069;-78
2023/08/08 14:30:20;;;;;;;4.97;1.10;;;;;;;;;;4991084;28;21439;-77
2023/08/08 14:32:47;;;;;;;2.95;0.98;;;;;;;;;;4991952;28;20050;-78
2023/08/08 14:35:14;;;;;;;1.92;0.85;;;;;;;;;;4973605;28;20093;-79
2023/08/08 14:37:41;;;;;;;3.80;0.80;;;;;;;;;;4990027;28;20049;-79
2023/08/08 14:40:08;;;;;;;2.03;0.90;;;;;;;;;;4990261;28;20715;-77
2023/08/08 14:42:35;;;;;;;1.63;0.80;;;;;;;;;;4989678;28;20341;-77
2023/08/08 14:45:02;;;;;;;2.92;1.10;;;;;;;;;;4980878;28;20049;-77